createdAt,value
2023-05-10T00:01:20.838Z,100.00
2023-05-10T00:03:47.652Z,100.00
2023-05-10T00:06:14.447Z,100.00
2023-05-10T00:08:41.350Z,100.00
2023-05-10T00:11:08.237Z,100.00
2023-05-10T00:13:34.900Z,100.00
2023-05-10T00:16:01.668Z,100.00
2023-05-10T00:18:28.447Z,100.00
2023-05-10T00:20:55.090Z,100.00
2023-05-10T00:23:21.764Z,100.00
2023-05-10T00:25:48.585Z,100.00
2023-05-10T00:28:15.258Z,100.00
2023-05-10T00:30:42.078Z,100.00
2023-05-10T00:33:08.978Z,100.00
2023-05-10T00:35:35.672Z,100.00
2023-05-10T00:38:02.374Z,100.00
2023-05-10T00:40:29.745Z,100.00
2023-05-10T00:43:01.428Z,100.00
2023-05-10T00:45:28.370Z,100.00
2023-05-10T00:47:56.208Z,100.00
2023-05-10T00:50:24.322Z,100.00
2023-05-10T00:52:51.337Z,100.00
2023-05-10T00:55:19.060Z,99.92
2023-05-10T00:57:45.860Z,99.16
2023-05-10T01:00:14.016Z,98.44
2023-05-10T01:02:41.516Z,98.40
2023-05-10T01:05:08.459Z,99.25
2023-05-10T01:07:35.208Z,98.10
2023-05-10T01:10:02.175Z,98.34
2023-05-10T01:12:31.220Z,98.06
2023-05-10T01:14:58.896Z,97.72
2023-05-10T01:17:26.566Z,97.76
2023-05-10T01:19:53.420Z,97.99
2023-05-10T01:22:41.915Z,97.51
2023-05-10T01:25:39.477Z,97.61
2023-05-10T01:28:28.029Z,98.46
2023-05-10T01:31:19.776Z,99.29
2023-05-10T01:33:59.940Z,100.00
2023-05-10T01:36:48.847Z,100.00
2023-05-10T01:39:41.312Z,100.00
2023-05-10T01:42:14.037Z,100.00
2023-05-10T01:45:01.144Z,100.00
2023-05-10T01:47:39.595Z,100.00
2023-05-10T01:50:16.143Z,100.00
2023-05-10T01:52:49.078Z,100.00
2023-05-10T01:55:17.886Z,100.00
2023-05-10T01:57:47.349Z,100.00
2023-05-10T02:00:15.901Z,100.00
2023-05-10T02:02:48.249Z,100.00
2023-05-10T02:05:17.042Z,100.00
2023-05-10T02:07:44.694Z,100.00
2023-05-10T02:10:14.011Z,100.00
2023-05-10T02:12:47.212Z,100.00
2023-05-10T02:15:20.181Z,100.00
2023-05-10T02:17:48.196Z,100.00
2023-05-10T02:20:18.136Z,100.00
2023-05-10T02:22:47.011Z,100.00
2023-05-10T02:25:16.580Z,100.00
2023-05-10T02:27:45.585Z,100.00
2023-05-10T02:30:12.978Z,100.00
2023-05-10T02:32:40.582Z,100.00
2023-05-10T02:35:09.365Z,100.00
2023-05-10T02:37:38.372Z,100.00
2023-05-10T02:40:07.257Z,100.00
2023-05-10T02:42:37.797Z,100.00
2023-05-10T02:45:13.022Z,100.00
2023-05-10T02:47:40.320Z,100.00
2023-05-10T02:50:07.896Z,100.00
2023-05-10T02:52:41.105Z,100.00
2023-05-10T02:55:10.802Z,100.00
2023-05-10T02:57:42.266Z,100.00
2023-05-10T03:00:09.792Z,100.00
2023-05-10T03:02:37.318Z,100.00
2023-05-10T03:05:04.559Z,100.00
2023-05-10T03:07:31.570Z,100.00
2023-05-10T03:09:59.588Z,100.00
2023-05-10T03:12:32.556Z,100.00
2023-05-10T03:15:34.551Z,100.00
2023-05-10T03:18:14.879Z,100.00
2023-05-10T03:20:49.409Z,100.00
2023-05-10T03:23:18.998Z,100.00
2023-05-10T03:25:48.859Z,100.00
2023-05-10T03:28:17.575Z,100.00
2023-05-10T03:30:45.507Z,100.00
2023-05-10T03:33:14.166Z,100.00
2023-05-10T03:35:46.551Z,100.00
2023-05-10T03:38:14.202Z,100.00
2023-05-10T03:40:40.931Z,99.77
2023-05-10T03:43:08.884Z,100.00
2023-05-10T03:45:35.699Z,97.06
2023-05-10T03:48:02.471Z,97.30
2023-05-10T03:50:29.628Z,96.75
2023-05-10T03:52:56.560Z,95.18
2023-05-10T03:55:23.496Z,94.60
2023-05-10T03:57:54.710Z,95.34
2023-05-10T04:00:22.732Z,95.35
2023-05-10T04:02:53.044Z,95.71
2023-05-10T04:05:20.705Z,93.97
2023-05-10T04:07:48.122Z,94.11
2023-05-10T04:10:15.095Z,93.45
2023-05-10T04:12:42.001Z,93.83
2023-05-10T04:15:09.219Z,95.28
2023-05-10T04:17:35.956Z,94.06
2023-05-10T04:20:02.852Z,94.12
2023-05-10T04:22:30.792Z,94.12
2023-05-10T04:24:57.415Z,94.61
2023-05-10T04:27:24.168Z,95.40
2023-05-10T04:29:51.660Z,96.49
2023-05-10T04:32:18.410Z,98.37
2023-05-10T04:34:45.108Z,97.36
2023-05-10T04:37:11.864Z,97.95
2023-05-10T04:39:40.232Z,99.08
2023-05-10T04:42:08.219Z,99.15
2023-05-10T04:44:35.039Z,98.94
2023-05-10T04:47:03.209Z,100.00
2023-05-10T04:49:30.987Z,98.46
2023-05-10T04:51:57.646Z,98.86
2023-05-10T04:54:24.480Z,97.10
2023-05-10T04:56:51.207Z,98.05
2023-05-10T04:59:18.154Z,98.46
2023-05-10T05:01:44.860Z,97.82
2023-05-10T05:04:11.861Z,98.58
2023-05-10T05:06:38.640Z,98.50
2023-05-10T05:09:05.310Z,97.46
2023-05-10T05:11:31.984Z,96.85
2023-05-10T05:14:00.145Z,98.74
2023-05-10T05:16:27.436Z,100.00
2023-05-10T05:18:54.266Z,100.00
2023-05-10T05:21:21.234Z,100.00
2023-05-10T05:23:48.354Z,100.00
2023-05-10T05:26:15.871Z,100.00
2023-05-10T05:28:43.111Z,100.00
2023-05-10T05:31:10.178Z,99.68
2023-05-10T05:33:37.743Z,97.54
2023-05-10T05:36:06.332Z,96.58
2023-05-10T05:38:33.162Z,96.27
2023-05-10T05:40:59.972Z,98.49
2023-05-10T05:43:26.710Z,98.61
2023-05-10T05:45:54.795Z,97.37
2023-05-10T05:48:21.846Z,96.85
2023-05-10T05:50:48.502Z,97.48
2023-05-10T05:53:15.355Z,98.79
2023-05-10T05:55:51.404Z,99.32
2023-05-10T05:58:18.156Z,96.70
2023-05-10T06:00:44.791Z,97.31
2023-05-10T06:03:11.646Z,98.02
2023-05-10T06:05:38.544Z,98.55
2023-05-10T06:08:05.274Z,98.48
2023-05-10T06:10:31.955Z,96.61
2023-05-10T06:12:58.651Z,98.47
2023-05-10T06:15:25.601Z,99.15
2023-05-10T06:17:52.485Z,98.77
2023-05-10T06:20:19.485Z,96.39
2023-05-10T06:22:46.170Z,96.33
2023-05-10T06:25:12.988Z,97.04
2023-05-10T06:27:39.600Z,96.66
2023-05-10T06:30:13.014Z,96.46
2023-05-10T06:32:40.692Z,95.77
2023-05-10T06:35:08.762Z,94.93
2023-05-10T06:37:35.569Z,94.76
2023-05-10T06:40:03.270Z,94.37
2023-05-10T06:42:31.719Z,94.61
2023-05-10T06:44:58.404Z,93.60
2023-05-10T06:47:25.249Z,93.73
2023-05-10T06:49:52.141Z,94.23
2023-05-10T06:52:18.949Z,93.59
2023-05-10T06:54:45.598Z,92.60
2023-05-10T06:57:23.415Z,93.89
2023-05-10T06:59:58.334Z,93.60
2023-05-10T07:02:25.054Z,93.31
2023-05-10T07:04:52.918Z,94.24
2023-05-10T07:07:20.047Z,92.52
2023-05-10T07:09:46.852Z,91.69
2023-05-10T07:12:15.337Z,91.36
2023-05-10T07:14:43.071Z,92.15
2023-05-10T07:17:10.363Z,93.19
2023-05-10T07:19:37.188Z,92.69
2023-05-10T07:22:04.061Z,92.14
2023-05-10T07:24:32.118Z,92.44
2023-05-10T07:26:58.787Z,90.47
2023-05-10T07:29:25.888Z,90.43
2023-05-10T07:31:52.740Z,89.93
2023-05-10T07:34:19.650Z,87.56
2023-05-10T07:36:46.348Z,87.34
2023-05-10T07:39:16.467Z,87.31
2023-05-10T07:41:51.919Z,85.78
2023-05-10T07:44:21.528Z,85.65
2023-05-10T07:46:48.965Z,86.25
2023-05-10T07:49:15.875Z,83.64
2023-05-10T07:51:43.407Z,84.11
2023-05-10T07:54:10.539Z,84.07
2023-05-10T07:56:37.299Z,83.89
2023-05-10T07:59:08.799Z,84.84
2023-05-10T08:01:36.712Z,86.38
2023-05-10T08:04:03.584Z,87.73
2023-05-10T08:06:31.194Z,87.39
2023-05-10T08:08:58.560Z,87.77
2023-05-10T08:11:25.664Z,86.94
2023-05-10T08:13:52.642Z,85.88
2023-05-10T08:16:19.530Z,84.58
2023-05-10T08:18:47.989Z,85.25
2023-05-10T08:21:15.337Z,84.80
2023-05-10T08:23:42.067Z,84.79
2023-05-10T08:26:08.731Z,82.26
2023-05-10T08:28:35.542Z,82.35
2023-05-10T08:31:02.362Z,81.94
2023-05-10T08:33:29.315Z,82.12
2023-05-10T08:35:55.960Z,80.52
2023-05-10T08:38:22.747Z,79.73
2023-05-10T08:40:51.739Z,79.32
2023-05-10T08:43:19.130Z,78.21
2023-05-10T08:45:48.800Z,77.39
2023-05-10T08:48:16.445Z,76.65
2023-05-10T08:50:44.049Z,77.23
2023-05-10T08:53:12.598Z,77.06
2023-05-10T08:55:41.049Z,76.65
2023-05-10T08:58:07.795Z,77.18
2023-05-10T09:00:35.211Z,76.28
2023-05-10T09:03:03.775Z,76.02
2023-05-10T09:05:30.728Z,75.71
2023-05-10T09:07:57.510Z,75.86
2023-05-10T09:10:27.029Z,76.06
2023-05-10T09:12:54.585Z,76.25
2023-05-10T09:15:21.449Z,77.94
2023-05-10T09:17:50.133Z,79.52
2023-05-10T09:20:18.379Z,79.05
2023-05-10T09:22:45.086Z,79.41
2023-05-10T09:25:16.171Z,80.14
2023-05-10T09:27:46.930Z,78.98
2023-05-10T09:30:29.570Z,76.39
2023-05-10T09:32:57.942Z,76.32
2023-05-10T09:35:29.446Z,75.27
2023-05-10T09:37:58.818Z,75.00
2023-05-10T09:40:27.226Z,75.79
2023-05-10T09:43:02.428Z,74.27
2023-05-10T09:45:31.456Z,75.37
2023-05-10T09:48:01.521Z,75.51
2023-05-10T09:50:29.017Z,75.23
2023-05-10T09:53:01.626Z,77.43
2023-05-10T09:55:46.134Z,76.36
2023-05-10T09:58:14.509Z,75.71
2023-05-10T10:00:42.944Z,74.90
2023-05-10T10:03:21.197Z,75.08
2023-05-10T10:05:49.592Z,73.84
2023-05-10T10:08:17.664Z,74.10
2023-05-10T10:10:47.393Z,71.98
2023-05-10T10:13:14.854Z,70.39
2023-05-10T10:15:43.384Z,70.80
2023-05-10T10:18:15.113Z,70.90
2023-05-10T10:20:42.583Z,70.41
2023-05-10T10:23:09.541Z,69.81
2023-05-10T10:25:36.589Z,68.54
2023-05-10T10:28:17.247Z,67.28
2023-05-10T10:30:47.947Z,67.20
2023-05-10T10:33:30.556Z,65.67
2023-05-10T10:36:00.930Z,65.21
2023-05-10T10:39:00.334Z,64.50
2023-05-10T10:41:53.493Z,64.21
2023-05-10T10:44:23.570Z,64.02
2023-05-10T10:47:12.849Z,63.40
2023-05-10T10:49:46.974Z,62.77
2023-05-10T10:52:16.236Z,61.97
2023-05-10T10:54:50.972Z,61.89
2023-05-10T10:57:22.508Z,60.62
2023-05-10T10:59:49.524Z,60.17
2023-05-10T11:02:44.773Z,61.47
2023-05-10T11:05:34.353Z,60.85
2023-05-10T11:08:08.386Z,59.76
2023-05-10T11:10:35.344Z,60.42
2023-05-10T11:13:06.955Z,59.17
2023-05-10T11:15:38.037Z,58.84
2023-05-10T11:18:24.980Z,59.39
2023-05-10T11:20:59.874Z,58.75
2023-05-10T11:23:58.765Z,59.08
2023-05-10T11:26:27.190Z,56.39
2023-05-10T11:28:59.443Z,54.79
2023-05-10T11:31:27.905Z,52.15
2023-05-10T11:33:57.228Z,52.44
2023-05-10T11:36:33.510Z,52.25
2023-05-10T11:39:00.407Z,52.94
2023-05-10T11:41:29.522Z,52.71
2023-05-10T11:43:58.315Z,52.54
2023-05-10T11:46:27.694Z,52.55
2023-05-10T11:49:02.375Z,52.38
2023-05-10T11:51:29.154Z,52.63
2023-05-10T11:53:57.168Z,52.53
2023-05-10T11:56:24.521Z,53.17
2023-05-10T11:58:56.698Z,53.91
2023-05-10T12:01:27.530Z,54.33
2023-05-10T12:03:59.086Z,55.04
2023-05-10T12:06:32.149Z,55.98
2023-05-10T12:08:59.777Z,56.02
2023-05-10T12:11:28.424Z,57.25
2023-05-10T12:13:57.168Z,57.57
2023-05-10T12:16:27.023Z,57.89
2023-05-10T12:18:56.869Z,57.87
2023-05-10T12:21:24.178Z,56.99
2023-05-10T12:23:52.099Z,56.96
2023-05-10T12:26:22.464Z,56.61
2023-05-10T12:28:49.109Z,55.71
2023-05-10T12:31:15.979Z,54.83
2023-05-10T12:33:44.668Z,54.16
2023-05-10T12:36:12.959Z,53.09
2023-05-10T12:38:48.589Z,51.76
2023-05-10T12:41:19.533Z,53.13
2023-05-10T12:43:49.253Z,53.66
2023-05-10T12:46:18.182Z,53.60
2023-05-10T12:48:47.131Z,54.20
2023-05-10T12:51:16.538Z,54.59
2023-05-10T12:53:46.149Z,55.38
2023-05-10T12:56:14.236Z,56.29
2023-05-10T12:58:41.244Z,57.51
2023-05-10T13:01:08.079Z,57.60
2023-05-10T13:03:34.786Z,57.22
2023-05-10T13:06:01.606Z,57.52
2023-05-10T13:08:30.629Z,57.52
2023-05-10T13:10:57.636Z,57.73
2023-05-10T13:13:24.368Z,57.41
2023-05-10T13:15:51.219Z,56.82
2023-05-10T13:18:18.019Z,56.53
2023-05-10T13:20:45.279Z,55.51
2023-05-10T13:23:12.187Z,52.99
2023-05-10T13:25:39.251Z,50.79
2023-05-10T13:28:06.050Z,50.48
2023-05-10T13:30:32.808Z,50.70
2023-05-10T13:32:59.637Z,50.67
2023-05-10T13:35:26.354Z,50.19
2023-05-10T13:37:54.330Z,50.68
2023-05-10T13:40:21.034Z,51.12
2023-05-10T13:42:47.700Z,50.90
2023-05-10T13:45:14.741Z,50.20
2023-05-10T13:47:41.949Z,49.33
2023-05-10T13:50:09.014Z,49.87
2023-05-10T13:52:36.132Z,49.05
2023-05-10T13:55:03.740Z,48.73
2023-05-10T13:57:31.673Z,48.18
2023-05-10T13:59:59.344Z,48.35
2023-05-10T14:02:26.802Z,47.75
2023-05-10T14:04:53.647Z,48.05
2023-05-10T14:07:20.307Z,46.80
2023-05-10T14:09:47.019Z,45.19
2023-05-10T14:12:15.429Z,45.36
2023-05-10T14:14:42.225Z,44.15
2023-05-10T14:17:10.735Z,44.47
2023-05-10T14:19:39.691Z,43.94
2023-05-10T14:22:06.592Z,43.92
2023-05-10T14:24:33.478Z,43.88
2023-05-10T14:27:01.114Z,42.76
2023-05-10T14:29:28.228Z,41.97
2023-05-10T14:31:54.957Z,40.75
2023-05-10T14:34:21.879Z,41.44
2023-05-10T14:36:48.703Z,41.58
2023-05-10T14:39:15.523Z,41.35
2023-05-10T14:41:43.873Z,40.88
2023-05-10T14:44:11.620Z,40.65
2023-05-10T14:46:39.068Z,39.38
2023-05-10T14:49:05.959Z,39.48
2023-05-10T14:51:32.692Z,39.16
2023-05-10T14:53:59.802Z,39.48
2023-05-10T14:56:29.492Z,38.46
2023-05-10T14:58:56.438Z,39.18
2023-05-10T15:01:23.686Z,40.26
2023-05-10T15:03:51.582Z,41.13
2023-05-10T15:06:24.667Z,40.40
2023-05-10T15:08:53.544Z,39.51
2023-05-10T15:11:21.384Z,38.98
2023-05-10T15:13:48.176Z,38.74
2023-05-10T15:16:14.929Z,38.37
2023-05-10T15:18:41.685Z,38.19
2023-05-10T15:21:08.346Z,38.07
2023-05-10T15:23:34.996Z,37.64
2023-05-10T15:26:01.978Z,37.45
2023-05-10T15:28:28.582Z,37.56
2023-05-10T15:30:56.279Z,37.83
2023-05-10T15:33:23.742Z,38.49
2023-05-10T15:35:50.395Z,38.36
2023-05-10T15:38:17.193Z,38.21
2023-05-10T15:40:43.808Z,39.08
2023-05-10T15:43:10.442Z,38.12
2023-05-10T15:45:37.705Z,37.46
2023-05-10T15:48:05.027Z,37.89
2023-05-10T15:50:31.835Z,37.96
2023-05-10T15:52:58.520Z,37.95
2023-05-10T15:55:25.876Z,38.46
2023-05-10T15:57:52.809Z,38.59
2023-05-10T16:00:19.692Z,38.20
2023-05-10T16:02:46.378Z,37.62
2023-05-10T16:05:13.946Z,37.53
2023-05-10T16:07:41.940Z,38.04
2023-05-10T16:10:11.053Z,38.16
2023-05-10T16:12:38.568Z,38.63
2023-05-10T16:15:06.303Z,38.41
2023-05-10T16:17:33.130Z,38.70
2023-05-10T16:20:01.177Z,38.68
2023-05-10T16:22:30.657Z,38.93
2023-05-10T16:24:58.158Z,38.87
2023-05-10T16:27:25.236Z,39.13
2023-05-10T16:29:51.877Z,39.36
2023-05-10T16:32:18.654Z,39.00
2023-05-10T16:34:45.524Z,39.66
2023-05-10T16:37:12.240Z,39.24
2023-05-10T16:39:38.894Z,39.27
2023-05-10T16:42:05.685Z,39.25
2023-05-10T16:44:32.625Z,39.44
2023-05-10T16:46:59.364Z,40.15
2023-05-10T16:49:26.616Z,40.45
2023-05-10T16:51:53.423Z,40.35
2023-05-10T16:54:21.815Z,40.66
2023-05-10T16:56:48.478Z,41.01
2023-05-10T16:59:16.243Z,41.05
2023-05-10T17:01:43.139Z,41.42
2023-05-10T17:04:09.849Z,42.49
2023-05-10T17:06:37.406Z,41.57
2023-05-10T17:09:05.593Z,42.79
2023-05-10T17:11:32.645Z,41.62
2023-05-10T17:14:01.367Z,41.57
2023-05-10T17:16:29.698Z,41.81
2023-05-10T17:18:56.673Z,41.11
2023-05-10T17:21:23.399Z,41.29
2023-05-10T17:23:50.277Z,42.40
2023-05-10T17:26:17.259Z,43.60
2023-05-10T17:28:43.943Z,44.00
2023-05-10T17:31:10.663Z,43.89
2023-05-10T17:33:37.552Z,44.01
2023-05-10T17:36:04.447Z,44.32
2023-05-10T17:38:31.147Z,43.59
2023-05-10T17:40:57.880Z,45.58
2023-05-10T17:43:25.987Z,45.83
2023-05-10T17:45:52.925Z,46.98
2023-05-10T17:48:19.755Z,47.26
2023-05-10T17:50:46.470Z,47.59
2023-05-10T17:53:13.113Z,47.64
2023-05-10T17:55:41.175Z,48.09
2023-05-10T17:58:09.568Z,48.06
2023-05-10T18:00:36.444Z,48.57
2023-05-10T18:03:04.562Z,48.73
2023-05-10T18:05:31.664Z,48.73
2023-05-10T18:07:58.347Z,48.49
2023-05-10T18:10:25.048Z,49.89
2023-05-10T18:12:52.496Z,49.43
2023-05-10T18:15:19.327Z,50.64
2023-05-10T18:17:46.110Z,50.84
2023-05-10T18:20:14.245Z,51.26
2023-05-10T18:22:40.986Z,52.40
2023-05-10T18:25:08.099Z,52.73
2023-05-10T18:27:34.878Z,52.42
2023-05-10T18:30:01.771Z,52.34
2023-05-10T18:32:32.761Z,52.79
2023-05-10T18:34:59.478Z,53.49
2023-05-10T18:37:26.261Z,53.95
2023-05-10T18:39:53.086Z,54.55
2023-05-10T18:42:22.970Z,54.55
2023-05-10T18:44:49.702Z,55.30
2023-05-10T18:47:16.500Z,55.48
2023-05-10T18:49:45.130Z,55.60
2023-05-10T18:52:12.603Z,55.44
2023-05-10T18:54:39.240Z,55.75
2023-05-10T18:57:06.061Z,55.98
2023-05-10T18:59:33.594Z,55.41
2023-05-10T19:02:00.303Z,55.72
2023-05-10T19:04:27.531Z,55.52
2023-05-10T19:06:55.654Z,55.88
2023-05-10T19:09:22.873Z,56.64
2023-05-10T19:11:51.135Z,56.10
2023-05-10T19:14:17.817Z,56.34
2023-05-10T19:16:44.663Z,56.85
2023-05-10T19:19:12.542Z,57.43
2023-05-10T19:21:40.909Z,57.46
2023-05-10T19:24:07.854Z,58.36
2023-05-10T19:26:36.268Z,58.21
2023-05-10T19:29:04.131Z,58.53
2023-05-10T19:31:31.132Z,58.44
2023-05-10T19:34:00.914Z,58.63
2023-05-10T19:36:28.126Z,59.04
2023-05-10T19:38:54.776Z,59.42
2023-05-10T19:41:22.251Z,60.33
2023-05-10T19:43:49.046Z,60.28
2023-05-10T19:46:17.206Z,61.17
2023-05-10T19:48:45.415Z,60.74
2023-05-10T19:51:13.989Z,60.37
2023-05-10T19:53:44.635Z,59.73
2023-05-10T19:56:11.452Z,60.21
2023-05-10T19:58:38.342Z,59.69
2023-05-10T20:01:07.466Z,59.30
2023-05-10T20:03:35.339Z,58.80
2023-05-10T20:06:02.725Z,57.77
2023-05-10T20:08:29.855Z,58.39
2023-05-10T20:11:02.326Z,57.66
2023-05-10T20:13:29.822Z,57.21
2023-05-10T20:15:58.049Z,57.26
2023-05-10T20:18:25.686Z,57.13
2023-05-10T20:20:58.333Z,57.27
2023-05-10T20:23:25.650Z,56.88
2023-05-10T20:25:52.744Z,55.68
2023-05-10T20:28:22.648Z,55.66
2023-05-10T20:30:53.143Z,55.32
2023-05-10T20:33:20.747Z,55.57
2023-05-10T20:35:47.597Z,55.45
2023-05-10T20:38:14.314Z,55.64
2023-05-10T20:40:41.525Z,55.72
2023-05-10T20:43:08.229Z,55.89
2023-05-10T20:45:37.556Z,56.05
2023-05-10T20:48:04.967Z,56.32
2023-05-10T20:50:31.613Z,56.84
2023-05-10T20:52:58.397Z,57.37
2023-05-10T20:55:25.191Z,57.49
2023-05-10T20:57:52.780Z,56.87
2023-05-10T21:00:20.114Z,57.01
2023-05-10T21:02:47.333Z,57.36
2023-05-10T21:05:14.348Z,57.03
2023-05-10T21:07:41.027Z,57.32
2023-05-10T21:10:08.422Z,57.70
2023-05-10T21:12:35.290Z,57.58
2023-05-10T21:15:04.349Z,57.72
2023-05-10T21:17:32.155Z,58.02
2023-05-10T21:19:58.841Z,58.90
2023-05-10T21:22:26.139Z,59.46
2023-05-10T21:24:52.830Z,59.49
2023-05-10T21:27:19.728Z,60.28
2023-05-10T21:29:46.523Z,60.23
2023-05-10T21:32:13.302Z,60.62
2023-05-10T21:34:39.992Z,60.43
2023-05-10T21:37:06.703Z,60.99
2023-05-10T21:39:33.377Z,61.12
2023-05-10T21:42:00.314Z,61.14
2023-05-10T21:44:27.078Z,61.40
2023-05-10T21:46:53.714Z,61.44
2023-05-10T21:49:20.403Z,62.02
2023-05-10T21:51:47.293Z,62.36
2023-05-10T21:54:14.055Z,62.52
2023-05-10T21:56:40.705Z,62.80
2023-05-10T21:59:07.418Z,62.21
2023-05-10T22:01:34.215Z,62.53
2023-05-10T22:04:00.870Z,62.46
2023-05-10T22:06:27.640Z,63.00
2023-05-10T22:08:54.394Z,62.83
2023-05-10T22:11:21.755Z,63.26
2023-05-10T22:13:48.410Z,63.09
2023-05-10T22:16:15.424Z,63.41
2023-05-10T22:18:43.622Z,62.71
2023-05-10T22:21:10.521Z,63.65
2023-05-10T22:23:37.255Z,63.87
2023-05-10T22:26:04.424Z,63.84
2023-05-10T22:28:31.159Z,62.71
2023-05-10T22:30:57.811Z,63.38
2023-05-10T22:33:24.749Z,62.95
2023-05-10T22:35:51.480Z,63.67
2023-05-10T22:38:18.132Z,64.59
2023-05-10T22:40:44.851Z,63.78
2023-05-10T22:43:11.869Z,62.87
2023-05-10T22:45:38.607Z,62.15
2023-05-10T22:48:05.482Z,61.52
2023-05-10T22:50:32.161Z,61.68
2023-05-10T22:52:58.940Z,60.91
2023-05-10T22:55:25.665Z,61.12
2023-05-10T22:57:53.826Z,61.50
2023-05-10T23:00:20.890Z,60.54
2023-05-10T23:02:47.776Z,60.69
2023-05-10T23:05:14.550Z,60.67
2023-05-10T23:07:41.318Z,60.92
2023-05-10T23:10:08.341Z,61.32
2023-05-10T23:12:34.948Z,61.64
2023-05-10T23:15:01.628Z,61.39
2023-05-10T23:17:29.180Z,60.62
2023-05-10T23:19:55.974Z,60.82
2023-05-10T23:22:22.666Z,60.87
2023-05-10T23:24:49.310Z,60.20
2023-05-10T23:27:16.062Z,60.69
2023-05-10T23:29:42.776Z,61.38
2023-05-10T23:32:09.588Z,61.60
2023-05-10T23:34:36.383Z,60.63
2023-05-10T23:37:03.018Z,60.50
2023-05-10T23:39:29.694Z,61.19
2023-05-10T23:41:56.441Z,61.83
2023-05-10T23:44:23.500Z,60.85
2023-05-10T23:46:50.570Z,61.77
2023-05-10T23:49:17.406Z,62.49
2023-05-10T23:51:44.207Z,63.00
2023-05-10T23:54:11.021Z,63.64
2023-05-10T23:56:37.768Z,63.83
2023-05-10T23:59:05.993Z,63.75
